Time;durP1;ratioP1;P1;durP2;ratioP2;P2;SDS_P1;SDS_P2;PMS_P1;PMS_P2;Temp;Humidity;BMP_temperature;BMP_pressure;BME280_temperature;BME280_humidity;BME280_pressure;Samples;Min_cycle;Max_cycle;Signal;HPM_P1;HPM_P2
2023/12/23 00:02:17;;;;;;;;;;;;;;;;;;5069201;28;19924;-69
2023/12/23 00:04:44;;;;;;;;;;;;;;;;;;5076517;28;20346;-69
2023/12/23 00:07:14;;;;;;;;;;;;;;;;;;5062759;28;20438;-69
2023/12/23 00:09:41;;;;;;;;;;;;;;;;;;5067822;28;19924;-68
2023/12/23 00:12:08;;;;;;;;;;;;;;;;;;5063980;28;20412;-69
2023/12/23 00:14:35;;;;;;;;;;;;;;;;;;5069823;28;19932;-69
2023/12/23 00:17:03;;;;;;;;;;;;;;;;;;5069608;28;19925;-69
2023/12/23 00:19:30;;;;;;;;;;;;;;;;;;5062390;28;19978;-69
2023/12/23 00:21:57;;;;;;;;;;;;;;;;;;5073061;28;19932;-70
2023/12/23 00:24:26;;;;;;;;;;;;;;;;;;5071680;28;19925;-69
2023/12/23 00:26:57;;;;;;;;;;;;;;;;;;5072568;28;19935;-68
2023/12/23 00:29:24;;;;;;;;;;;;;;;;;;5070259;28;19936;-69
2023/12/23 00:31:51;;;;;;;;;;;;;;;;;;5072002;28;19959;-69
2023/12/23 00:34:18;;;;;;;;;;;;;;;;;;5069091;28;20655;-69
2023/12/23 00:36:45;;;;;;;;;;;;;;;;;;5065372;28;19928;-70
2023/12/23 00:39:12;;;;;;;;;;;;;;;;;;5071912;28;19967;-69
2023/12/23 00:41:40;;;;;;;;;;;;;;;;;;5068423;28;19924;-69
2023/12/23 00:44:07;;;;;;;;;;;;;;;;;;5071074;28;19933;-69
2023/12/23 00:46:34;;;;;;;;;;;;;;;;;;5071713;28;19928;-69
2023/12/23 00:49:01;;;;;;;;;;;;;;;;;;5067892;28;19941;-70
2023/12/23 00:51:28;;;;;;;;;;;;;;;;;;5059883;28;19924;-69
2023/12/23 00:53:55;;;;;;;;;;;;;;;;;;5065769;28;19956;-69
2023/12/23 00:56:22;;;;;;;;;;;;;;;;;;5067311;28;20428;-70
2023/12/23 00:58:49;;;;;;;;;;;;;;;;;;5070972;28;19971;-69
2023/12/23 01:01:16;;;;;;;;;;;;;;;;;;5072339;28;19925;-69
2023/12/23 01:03:44;;;;;;;;;;;;;;;;;;5071464;28;20399;-69
2023/12/23 01:06:11;;;;;;;;;;;;;;;;;;5071236;28;19931;-69
2023/12/23 01:08:38;;;;;;;;;;;;;;;;;;5072258;28;19986;-69
2023/12/23 01:11:05;;;;;;;;;;;;;;;;;;5078283;28;19924;-70
2023/12/23 01:13:32;;;;;;;;;;;;;;;;;;5069002;28;19924;-69
2023/12/23 01:15:59;;;;;;;;;;;;;;;;;;5070606;28;19924;-69
2023/12/23 01:18:26;;;;;;;;;;;;;;;;;;5071875;28;19925;-69
2023/12/23 01:20:53;;;;;;;;;;;;;;;;;;5070642;28;19929;-69
2023/12/23 01:23:20;;;;;;;;;;;;;;;;;;5067680;28;19932;-70
2023/12/23 01:25:47;;;;;;;;;;;;;;;;;;5067734;28;19955;-70
2023/12/23 01:28:14;;;;;;;;;;;;;;;;;;5069522;28;20407;-70
2023/12/23 01:30:42;;;;;;;;;;;;;;;;;;5071276;28;19969;-70
2023/12/23 01:33:09;;;;;;;;;;;;;;;;;;5067273;28;19952;-70
2023/12/23 01:35:36;;;;;;;;;;;;;;;;;;5070688;28;19986;-70
2023/12/23 01:38:03;;;;;;;;;;;;;;;;;;5069718;28;20398;-70
2023/12/23 01:40:30;;;;;;;;;;;;;;;;;;5069549;28;19925;-69
2023/12/23 01:42:57;;;;;;;;;;;;;;;;;;5066259;28;20437;-69
2023/12/23 01:45:24;;;;;;;;;;;;;;;;;;5068316;28;20032;-69
2023/12/23 01:47:51;;;;;;;;;;;;;;;;;;5070337;28;19924;-69
2023/12/23 01:50:19;;;;;;;;;;;;;;;;;;5071958;28;19936;-70
2023/12/23 01:52:46;;;;;;;;;;;;;;;;;;5071863;28;19928;-69
2023/12/23 01:55:13;;;;;;;;;;;;;;;;;;5071841;28;20000;-70
2023/12/23 01:57:40;;;;;;;;;;;;;;;;;;5066597;28;19975;-68
2023/12/23 02:00:07;;;;;;;;;;;;;;;;;;5068237;28;21507;-70
2023/12/23 02:02:38;;;;;;;;;;;;;;;;;;5068197;28;19924;-70
2023/12/23 02:05:05;;;;;;;;;;;;;;;;;;5070892;28;19928;-70
2023/12/23 02:07:32;;;;;;;;;;;;;;;;;;5063904;28;19967;-69
2023/12/23 02:09:59;;;;;;;;;;;;;;;;;;5070938;28;19924;-70
2023/12/23 02:12:26;;;;;;;;;;;;;;;;;;5068699;28;19924;-69
2023/12/23 02:14:53;;;;;;;;;;;;;;;;;;5070828;28;19936;-69
2023/12/23 02:17:20;;;;;;;;;;;;;;;;;;5068123;28;19925;-69
2023/12/23 02:19:47;;;;;;;;;;;;;;;;;;5071697;28;19986;-70
2023/12/23 02:22:14;;;;;;;;;;;;;;;;;;5071312;28;19933;-70
2023/12/23 02:24:41;;;;;;;;;;;;;;;;;;5067615;28;19971;-70
2023/12/23 02:27:08;;;;;;;;;;;;;;;;;;5068136;28;20555;-70
2023/12/23 02:29:35;;;;;;;;;;;;;;;;;;5066271;28;19974;-70
2023/12/23 02:32:02;;;;;;;;;;;;;;;;;;5068695;28;19924;-70
2023/12/23 02:34:29;;;;;;;;;;;;;;;;;;5068103;28;19928;-70
2023/12/23 02:36:56;;;;;;;;;;;;;;;;;;5071413;28;20395;-70
2023/12/23 02:39:23;;;;;;;;;;;;;;;;;;5070197;28;20001;-70
2023/12/23 02:41:50;;;;;;;;;;;;;;;;;;5065428;28;20009;-70
2023/12/23 02:44:17;;;;;;;;;;;;;;;;;;5070463;28;20414;-70
2023/12/23 02:46:44;;;;;;;;;;;;;;;;;;5068829;28;19960;-70
2023/12/23 02:49:11;;;;;;;;;;;;;;;;;;5069046;28;19956;-70
2023/12/23 02:51:38;;;;;;;;;;;;;;;;;;5067405;28;19928;-70
2023/12/23 02:54:05;;;;;;;;;;;;;;;;;;5074300;28;20366;-70
2023/12/23 02:56:32;;;;;;;;;;;;;;;;;;5066471;28;20025;-70
2023/12/23 02:58:59;;;;;;;;;;;;;;;;;;5066550;28;20025;-70
2023/12/23 03:01:27;;;;;;;;;;;;;;;;;;5067483;28;19986;-70
2023/12/23 03:03:54;;;;;;;;;;;;;;;;;;5068244;28;19928;-70
2023/12/23 03:06:21;;;;;;;;;;;;;;;;;;5070994;28;20384;-70
2023/12/23 03:08:48;;;;;;;;;;;;;;;;;;5067921;28;19994;-69
2023/12/23 03:11:15;;;;;;;;;;;;;;;;;;5067912;28;19994;-70
2023/12/23 03:13:42;;;;;;;;;;;;;;;;;;5066175;28;19963;-70
2023/12/23 03:16:09;;;;;;;;;;;;;;;;;;5069112;28;20613;-69
2023/12/23 03:18:36;;;;;;;;;;;;;;;;;;5064576;28;19932;-70
2023/12/23 03:21:03;;;;;;;;;;;;;;;;;;5068866;28;19974;-70
2023/12/23 03:23:30;;;;;;;;;;;;;;;;;;5069165;28;20800;-70
2023/12/23 03:25:57;;;;;;;;;;;;;;;;;;5070126;28;19947;-68
2023/12/23 03:28:24;;;;;;;;;;;;;;;;;;5077471;28;20311;-70
2023/12/23 03:30:51;;;;;;;;;;;;;;;;;;5057663;28;19986;-70
2023/12/23 03:33:18;;;;;;;;;;;;;;;;;;5056077;28;20005;-70
2023/12/23 03:35:45;;;;;;;;;;;;;;;;;;5069831;28;19982;-70
2023/12/23 03:38:12;;;;;;;;;;;;;;;;;;5068115;28;20414;-69
2023/12/23 03:40:39;;;;;;;;;;;;;;;;;;5068040;28;19985;-69
2023/12/23 03:43:06;;;;;;;;;;;;;;;;;;5066705;28;19959;-69
2023/12/23 03:45:33;;;;;;;;;;;;;;;;;;5069023;28;19967;-69
2023/12/23 03:48:00;;;;;;;;;;;;;;;;;;5064224;28;20404;-69
2023/12/23 03:50:29;;;;;;;;;;;;;;;;;;5067433;28;19952;-69
2023/12/23 03:52:56;;;;;;;;;;;;;;;;;;5067892;28;20013;-70
2023/12/23 03:55:29;;;;;;;;;;;;;;;;;;5068761;28;20383;-70
2023/12/23 03:57:56;;;;;;;;;;;;;;;;;;5067933;28;19928;-70
2023/12/23 04:00:23;;;;;;;;;;;;;;;;;;5068972;28;20028;-70
2023/12/23 04:02:50;;;;;;;;;;;;;;;;;;5068296;28;19978;-70
2023/12/23 04:05:17;;;;;;;;;;;;;;;;;;5067386;28;19968;-70
2023/12/23 04:07:44;;;;;;;;;;;;;;;;;;5068282;28;19932;-70
2023/12/23 04:10:11;;;;;;;;;;;;;;;;;;5069232;28;20395;-70
2023/12/23 04:12:38;;;;;;;;;;;;;;;;;;5061140;28;19925;-70
2023/12/23 04:15:05;;;;;;;;;;;;;;;;;;5068336;28;19924;-70
2023/12/23 04:17:32;;;;;;;;;;;;;;;;;;5068565;28;19978;-68
2023/12/23 04:20:00;;;;;;;;;;;;;;;;;;5068491;28;20357;-69
2023/12/23 04:22:27;;;;;;;;;;;;;;;;;;5065160;28;19925;-69
2023/12/23 04:24:54;;;;;;;;;;;;;;;;;;5060283;28;19933;-69
2023/12/23 04:27:21;;;;;;;;;;;;;;;;;;5063229;28;20019;-71
2023/12/23 04:29:48;;;;;;;;;;;;;;;;;;5066066;28;19932;-69
2023/12/23 04:32:15;;;;;;;;;;;;;;;;;;5065404;28;20324;-70
2023/12/23 04:34:42;;;;;;;;;;;;;;;;;;5071193;28;19924;-70
2023/12/23 04:37:09;;;;;;;;;;;;;;;;;;5071148;28;20558;-70
2023/12/23 04:39:36;;;;;;;;;;;;;;;;;;5071010;28;19971;-67
2023/12/23 04:42:03;;;;;;;;;;;;;;;;;;5068848;28;20365;-69
2023/12/23 04:44:30;;;;;;;;;;;;;;;;;;5068362;28;19970;-69
2023/12/23 04:46:57;;;;;;;;;;;;;;;;;;5067880;28;19924;-69
2023/12/23 04:49:24;;;;;;;;;;;;;;;;;;5071195;28;20375;-70
2023/12/23 04:51:51;;;;;;;;;;;;;;;;;;5071163;28;19983;-70
2023/12/23 04:54:18;;;;;;;;;;;;;;;;;;5073436;28;19925;-70
2023/12/23 04:56:45;;;;;;;;;;;;;;;;;;5070232;28;21088;-69
2023/12/23 04:59:12;;;;;;;;;;;;;;;;;;5068518;28;19924;-69
2023/12/23 05:01:39;;;;;;;;;;;;;;;;;;5067789;28;19968;-69
2023/12/23 05:04:06;;;;;;;;;;;;;;;;;;5071770;28;19933;-70
2023/12/23 05:06:33;;;;;;;;;;;;;;;;;;5070580;28;20440;-69
2023/12/23 05:09:00;;;;;;;;;;;;;;;;;;5070675;28;19978;-70
2023/12/23 05:11:27;;;;;;;;;;;;;;;;;;5074932;28;19982;-69
2023/12/23 05:13:54;;;;;;;;;;;;;;;;;;5064593;28;19925;-70
2023/12/23 05:16:21;;;;;;;;;;;;;;;;;;5068452;28;19970;-70
2023/12/23 05:18:48;;;;;;;;;;;;;;;;;;5071406;28;20013;-70
2023/12/23 05:21:16;;;;;;;;;;;;;;;;;;5068627;28;20337;-69
2023/12/23 05:23:43;;;;;;;;;;;;;;;;;;5062540;28;20439;-70
2023/12/23 05:26:10;;;;;;;;;;;;;;;;;;5058728;28;20418;-69
2023/12/23 05:28:37;;;;;;;;;;;;;;;;;;5086439;28;19970;-69
2023/12/23 05:31:04;;;;;;;;;;;;;;;;;;5066842;28;19959;-69
2023/12/23 05:33:31;;;;;;;;;;;;;;;;;;5067103;28;19976;-70
2023/12/23 05:35:58;;;;;;;;;;;;;;;;;;5069541;28;19931;-70
2023/12/23 05:38:25;;;;;;;;;;;;;;;;;;5069531;28;19924;-70
2023/12/23 05:40:52;;;;;;;;;;;;;;;;;;5069481;28;19929;-70
2023/12/23 05:43:19;;;;;;;;;;;;;;;;;;5070858;28;19925;-70
2023/12/23 05:45:46;;;;;;;;;;;;;;;;;;5076706;28;19928;-71
2023/12/23 05:48:14;;;;;;;;;;;;;;;;;;5071878;28;20349;-70
2023/12/23 05:50:41;;;;;;;;;;;;;;;;;;5071873;28;19978;-70
2023/12/23 05:53:08;;;;;;;;;;;;;;;;;;5066516;28;19975;-70
2023/12/23 05:55:35;;;;;;;;;;;;;;;;;;5067356;28;19933;-70
2023/12/23 05:58:03;;;;;;;;;;;;;;;;;;5069712;28;20022;-70
2023/12/23 06:00:30;;;;;;;;;;;;;;;;;;5064248;28;20027;-70
2023/12/23 06:02:57;;;;;;;;;;;;;;;;;;5070687;28;19978;-69
2023/12/23 06:05:24;;;;;;;;;;;;;;;;;;5064634;28;19928;-70
2023/12/23 06:07:51;;;;;;;;;;;;;;;;;;5069555;28;20440;-70
2023/12/23 06:10:18;;;;;;;;;;;;;;;;;;5065229;28;19967;-70
2023/12/23 06:12:46;;;;;;;;;;;;;;;;;;5070373;28;19977;-70
2023/12/23 06:15:13;;;;;;;;;;;;;;;;;;5066790;28;19924;-70
2023/12/23 06:17:40;;;;;;;;;;;;;;;;;;5065087;28;19924;-70
2023/12/23 06:20:07;;;;;;;;;;;;;;;;;;5059623;28;19925;-70
2023/12/23 06:22:34;;;;;;;;;;;;;;;;;;5070133;28;19924;-70
2023/12/23 06:25:03;;;;;;;;;;;;;;;;;;5067689;28;19994;-70
2023/12/23 06:27:30;;;;;;;;;;;;;;;;;;5067693;28;20385;-70
2023/12/23 06:29:57;;;;;;;;;;;;;;;;;;5067502;28;19924;-69
2023/12/23 06:32:25;;;;;;;;;;;;;;;;;;5069664;28;19978;-69
2023/12/23 06:34:52;;;;;;;;;;;;;;;;;;5071258;28;19931;-71
2023/12/23 06:37:19;;;;;;;;;;;;;;;;;;5068013;28;20419;-71
2023/12/23 06:39:46;;;;;;;;;;;;;;;;;;5067837;28;19996;-71
2023/12/23 06:42:13;;;;;;;;;;;;;;;;;;5068323;28;19972;-70
2023/12/23 06:44:40;;;;;;;;;;;;;;;;;;5067247;28;19960;-70
2023/12/23 06:47:07;;;;;;;;;;;;;;;;;;5065555;28;19925;-70
2023/12/23 06:49:34;;;;;;;;;;;;;;;;;;5066949;28;19924;-70
2023/12/23 06:52:01;;;;;;;;;;;;;;;;;;5069718;28;19928;-70
2023/12/23 06:54:28;;;;;;;;;;;;;;;;;;5068117;28;19933;-70
2023/12/23 06:56:56;;;;;;;;;;;;;;;;;;5070281;28;19969;-71
2023/12/23 06:59:23;;;;;;;;;;;;;;;;;;5068411;28;19986;-70
2023/12/23 07:01:51;;;;;;;;;;;;;;;;;;5068412;28;19924;-70
2023/12/23 07:04:18;;;;;;;;;;;;;;;;;;5061406;28;19929;-70
2023/12/23 07:06:45;;;;;;;;;;;;;;;;;;5058320;28;20403;-70
2023/12/23 07:09:12;;;;;;;;;;;;;;;;;;5063605;28;19963;-70
2023/12/23 07:11:39;;;;;;;;;;;;;;;;;;5060937;28;19986;-70
2023/12/23 07:14:06;;;;;;;;;;;;;;;;;;5066725;28;19924;-70
2023/12/23 07:16:33;;;;;;;;;;;;;;;;;;5064461;28;19932;-69
2023/12/23 07:19:00;;;;;;;;;;;;;;;;;;5059110;28;19955;-70
2023/12/23 07:21:27;;;;;;;;;;;;;;;;;;5058115;28;19987;-69
2023/12/23 07:23:54;;;;;;;;;;;;;;;;;;5054652;28;20293;-70
2023/12/23 07:26:22;;;;;;;;;;;;;;;;;;5065069;28;19960;-70
2023/12/23 07:28:49;;;;;;;;;;;;;;;;;;5066586;28;19994;-70
2023/12/23 07:31:16;;;;;;;;;;;;;;;;;;5068572;28;19979;-70
2023/12/23 07:33:43;;;;;;;;;;;;;;;;;;5066751;28;19956;-69
2023/12/23 07:36:10;;;;;;;;;;;;;;;;;;5064624;28;20065;-70
2023/12/23 07:38:37;;;;;;;;;;;;;;;;;;5067042;28;19975;-69
2023/12/23 07:41:04;;;;;;;;;;;;;;;;;;5062504;28;19928;-69
2023/12/23 07:43:32;;;;;;;;;;;;;;;;;;5064947;28;19982;-69
2023/12/23 07:45:59;;;;;;;;;;;;;;;;;;5064934;28;19928;-70
2023/12/23 07:48:26;;;;;;;;;;;;;;;;;;5068793;28;20105;-70
2023/12/23 07:50:53;;;;;;;;;;;;;;;;;;5063755;28;19925;-70
2023/12/23 07:53:20;;;;;;;;;;;;;;;;;;5063688;28;19978;-70
2023/12/23 07:55:47;;;;;;;;;;;;;;;;;;5065112;28;19956;-69
2023/12/23 07:58:14;;;;;;;;;;;;;;;;;;5064456;28;20419;-69
2023/12/23 08:00:42;;;;;;;;;;;;;;;;;;5064641;28;19968;-69
2023/12/23 08:03:10;;;;;;;;;;;;;;;;;;5071538;28;19933;-70
2023/12/23 08:05:37;;;;;;;;;;;;;;;;;;5063909;28;20478;-70
2023/12/23 08:08:04;;;;;;;;;;;;;;;;;;5073750;28;19924;-69
2023/12/23 08:10:31;;;;;;;;;;;;;;;;;;5071595;28;19928;-72
2023/12/23 08:12:58;;;;;;;;;;;;;;;;;;5073225;28;19925;-72
2023/12/23 08:15:25;;;;;;;;;;;;;;;;;;5072472;28;19924;-71
2023/12/23 08:17:52;;;;;;;;;;;;;;;;;;5077396;28;20397;-70
2023/12/23 08:20:19;;;;;;;;;;;;;;;;;;5074285;28;19972;-72
2023/12/23 08:22:46;;;;;;;;;;;;;;;;;;5060418;28;19925;-72
2023/12/23 08:25:14;;;;;;;;;;;;;;;;;;5071092;28;19982;-72
2023/12/23 08:27:41;;;;;;;;;;;;;;;;;;5069667;28;19978;-66
2023/12/23 08:30:08;;;;;;;;;;;;;;;;;;5066641;28;19964;-66
2023/12/23 08:32:35;;;;;;;;;;;;;;;;;;5063318;28;19924;-65
2023/12/23 08:35:02;;;;;;;;;;;;;;;;;;5071248;28;19924;-66
2023/12/23 08:37:29;;;;;;;;;;;;;;;;;;5062572;28;20078;-67
2023/12/23 08:39:56;;;;;;;;;;;;;;;;;;5064927;28;20330;-65
2023/12/23 08:42:23;;;;;;;;;;;;;;;;;;5074050;28;20444;-65
2023/12/23 08:44:51;;;;;;;;;;;;;;;;;;5066365;28;19924;-66
2023/12/23 08:47:18;;;;;;;;;;;;;;;;;;5070214;28;19978;-66
2023/12/23 08:49:45;;;;;;;;;;;;;;;;;;5069549;28;19932;-66
2023/12/23 08:52:12;;;;;;;;;;;;;;;;;;5078871;28;19970;-66
2023/12/23 08:54:39;;;;;;;;;;;;;;;;;;5067909;28;19929;-67
2023/12/23 08:57:06;;;;;;;;;;;;;;;;;;5070544;28;19924;-64
2023/12/23 08:59:33;;;;;;;;;;;;;;;;;;5070857;28;19925;-70
2023/12/23 09:02:02;;;;;;;;;;;;;;;;;;5066204;28;20284;-70
2023/12/23 09:04:29;;;;;;;;;;;;;;;;;;5067469;28;19947;-70
2023/12/23 09:06:57;;;;;;;;;;;;;;;;;;5071661;28;20437;-70
2023/12/23 09:09:24;;;;;;;;;;;;;;;;;;5069559;28;19930;-70
2023/12/23 09:11:51;;;;;;;;;;;;;;;;;;5069872;28;19924;-69
2023/12/23 09:14:19;;;;;;;;;;;;;;;;;;5072094;28;19928;-70
2023/12/23 09:16:46;;;;;;;;;;;;;;;;;;5066893;28;20298;-71
2023/12/23 09:19:13;;;;;;;;;;;;;;;;;;5067366;28;20328;-72
2023/12/23 09:21:40;;;;;;;;;;;;;;;;;;5072445;28;19924;-70
2023/12/23 09:24:07;;;;;;;;;;;;;;;;;;5075850;28;20387;-71
2023/12/23 09:26:35;;;;;;;;;;;;;;;;;;5076534;28;19925;-69
2023/12/23 09:29:02;;;;;;;;;;;;;;;;;;5063254;28;19940;-68
2023/12/23 09:31:29;;;;;;;;;;;;;;;;;;5071009;28;19994;-71
2023/12/23 09:33:56;;;;;;;;;;;;;;;;;;5059669;28;20005;-71
2023/12/23 09:36:27;;;;;;;;;;;;;;;;;;5070712;28;19924;-72
2023/12/23 09:38:55;;;;;;;;;;;;;;;;;;5068233;28;19924;-71
2023/12/23 09:41:24;;;;;;;;;;;;;;;;;;5070572;28;19931;-69
2023/12/23 09:43:51;;;;;;;;;;;;;;;;;;5078360;28;19924;-69
2023/12/23 09:46:19;;;;;;;;;;;;;;;;;;5069797;28;20318;-71
2023/12/23 09:48:46;;;;;;;;;;;;;;;;;;5070972;28;19951;-71
2023/12/23 09:51:14;;;;;;;;;;;;;;;;;;5066202;28;19928;-72
2023/12/23 09:53:41;;;;;;;;;;;;;;;;;;5070324;28;19933;-71
2023/12/23 09:56:08;;;;;;;;;;;;;;;;;;5063438;28;19936;-71
2023/12/23 09:58:35;;;;;;;;;;;;;;;;;;5063824;28;20023;-72
2023/12/23 10:01:02;;;;;;;;;;;;;;;;;;5063968;28;19936;-72
2023/12/23 10:03:29;;;;;;;;;;;;;;;;;;5070766;28;19970;-71
2023/12/23 10:05:56;;;;;;;;;;;;;;;;;;5065845;28;20004;-72
2023/12/23 10:08:23;;;;;;;;;;;;;;;;;;5061209;28;20023;-72
2023/12/23 10:10:50;;;;;;;;;;;;;;;;;;5063441;28;20295;-71
2023/12/23 10:13:18;;;;;;;;;;;;;;;;;;5065768;28;19993;-70
2023/12/23 10:15:45;;;;;;;;;;;;;;;;;;5067343;28;19931;-70
2023/12/23 10:18:12;;;;;;;;;;;;;;;;;;5071224;28;19925;-70
2023/12/23 10:20:39;;;;;;;;;;;;;;;;;;5068009;28;20037;-70
2023/12/23 10:23:06;;;;;;;;;;;;;;;;;;5067696;28;20003;-70
2023/12/23 10:25:33;;;;;;;;;;;;;;;;;;5069753;28;20348;-72
2023/12/23 10:28:01;;;;;;;;;;;;;;;;;;5069133;28;20010;-69
2023/12/23 10:30:28;;;;;;;;;;;;;;;;;;5067249;28;19935;-69
2023/12/23 10:32:55;;;;;;;;;;;;;;;;;;5065812;28;19943;-68
2023/12/23 10:35:22;;;;;;;;;;;;;;;;;;5069642;28;20024;-68
2023/12/23 10:37:49;;;;;;;;;;;;;;;;;;5069694;28;19928;-68
2023/12/23 10:40:17;;;;;;;;;;;;;;;;;;5067313;28;19925;-69
2023/12/23 10:42:44;;;;;;;;;;;;;;;;;;5065372;28;20015;-70
2023/12/23 10:45:11;;;;;;;;;;;;;;;;;;5069847;28;19967;-70
2023/12/23 10:47:38;;;;;;;;;;;;;;;;;;5067284;28;19977;-70
2023/12/23 10:50:05;;;;;;;;;;;;;;;;;;5068195;28;19978;-70
2023/12/23 10:52:32;;;;;;;;;;;;;;;;;;5066917;28;19924;-70
2023/12/23 10:55:00;;;;;;;;;;;;;;;;;;5067813;28;19956;-72
2023/12/23 10:57:27;;;;;;;;;;;;;;;;;;5062801;28;20015;-72
2023/12/23 10:59:54;;;;;;;;;;;;;;;;;;5066662;28;19971;-72
2023/12/23 11:02:22;;;;;;;;;;;;;;;;;;5068368;28;20608;-72
2023/12/23 11:04:49;;;;;;;;;;;;;;;;;;5064904;28;19924;-71
2023/12/23 11:07:16;;;;;;;;;;;;;;;;;;5064987;28;19956;-72
2023/12/23 11:09:43;;;;;;;;;;;;;;;;;;5056663;28;20405;-72
2023/12/23 11:12:10;;;;;;;;;;;;;;;;;;5054877;28;19976;-72
2023/12/23 11:14:37;;;;;;;;;;;;;;;;;;5069494;28;19977;-72
2023/12/23 11:17:04;;;;;;;;;;;;;;;;;;5070640;28;20479;-70
2023/12/23 11:19:31;;;;;;;;;;;;;;;;;;5069893;28;19990;-69
2023/12/23 11:21:58;;;;;;;;;;;;;;;;;;5062163;28;19947;-70
2023/12/23 11:24:25;;;;;;;;;;;;;;;;;;5065349;28;19940;-70
2023/12/23 11:26:54;;;;;;;;;;;;;;;;;;5064868;28;19924;-70
2023/12/23 11:29:22;;;;;;;;;;;;;;;;;;5062554;28;19964;-69
2023/12/23 11:31:49;;;;;;;;;;;;;;;;;;5066405;28;19936;-70
2023/12/23 11:34:15;;;;;;;;;;;;;;;;;;5070668;28;19929;-70
2023/12/23 11:36:43;;;;;;;;;;;;;;;;;;5059784;28;20386;-69
2023/12/23 11:39:11;;;;;;;;;;;;;;;;;;5065125;28;20327;-70
2023/12/23 11:41:38;;;;;;;;;;;;;;;;;;5069541;28;19948;-69
2023/12/23 11:44:05;;;;;;;;;;;;;;;;;;5061713;28;19932;-71
2023/12/23 11:46:32;;;;;;;;;;;;;;;;;;5065401;28;19928;-70
2023/12/23 11:48:59;;;;;;;;;;;;;;;;;;5066774;28;20392;-70
2023/12/23 11:51:26;;;;;;;;;;;;;;;;;;5059703;28;19929;-70
2023/12/23 11:53:54;;;;;;;;;;;;;;;;;;5065998;28;20003;-70
2023/12/23 11:56:21;;;;;;;;;;;;;;;;;;5059837;28;19956;-70
2023/12/23 11:58:48;;;;;;;;;;;;;;;;;;5062121;28;19933;-71
2023/12/23 12:01:16;;;;;;;;;;;;;;;;;;5057631;28;20020;-70
2023/12/23 12:03:43;;;;;;;;;;;;;;;;;;5062151;28;20359;-70
2023/12/23 12:06:10;;;;;;;;;;;;;;;;;;5063912;28;20603;-70
2023/12/23 12:08:38;;;;;;;;;;;;;;;;;;5062862;28;20399;-70
2023/12/23 12:11:05;;;;;;;;;;;;;;;;;;5060547;28;19925;-71
2023/12/23 12:13:33;;;;;;;;;;;;;;;;;;5062052;28;20038;-70
2023/12/23 12:16:00;;;;;;;;;;;;;;;;;;5063885;28;19977;-69
2023/12/23 12:18:27;;;;;;;;;;;;;;;;;;5065767;28;19940;-70
2023/12/23 12:20:54;;;;;;;;;;;;;;;;;;5056364;28;19960;-70
2023/12/23 12:23:21;;;;;;;;;;;;;;;;;;5061135;28;19993;-70
2023/12/23 12:25:48;;;;;;;;;;;;;;;;;;5062449;28;20338;-70
2023/12/23 12:28:15;;;;;;;;;;;;;;;;;;5064889;28;19925;-70
2023/12/23 12:30:42;;;;;;;;;;;;;;;;;;5076038;28;19931;-70
2023/12/23 12:33:09;;;;;;;;;;;;;;;;;;5068421;28;19973;-68
2023/12/23 12:35:36;;;;;;;;;;;;;;;;;;5060314;28;19970;-68
2023/12/23 12:38:03;;;;;;;;;;;;;;;;;;5057266;28;19932;-70
2023/12/23 12:40:30;;;;;;;;;;;;;;;;;;5060709;28;20001;-68
2023/12/23 12:42:57;;;;;;;;;;;;;;;;;;5059686;28;19972;-68
2023/12/23 12:45:24;;;;;;;;;;;;;;;;;;5058962;28;20011;-69
2023/12/23 12:47:51;;;;;;;;;;;;;;;;;;5057739;28;19963;-69
2023/12/23 12:50:19;;;;;;;;;;;;;;;;;;5068211;28;20390;-69
2023/12/23 12:52:46;;;;;;;;;;;;;;;;;;5066694;28;19940;-69
2023/12/23 12:55:13;;;;;;;;;;;;;;;;;;5064145;28;20751;-69
2023/12/23 12:57:41;;;;;;;;;;;;;;;;;;5065674;28;20516;-68
2023/12/23 13:00:09;;;;;;;;;;;;;;;;;;5075088;28;20387;-68
2023/12/23 13:02:36;;;;;;;;;;;;;;;;;;5062402;28;19931;-68
2023/12/23 13:05:03;;;;;;;;;;;;;;;;;;5065040;28;19924;-69
2023/12/23 13:07:30;;;;;;;;;;;;;;;;;;5061724;28;19924;-70
2023/12/23 13:09:57;;;;;;;;;;;;;;;;;;5066909;28;19993;-68
2023/12/23 13:12:24;;;;;;;;;;;;;;;;;;5063171;28;19925;-69
2023/12/23 13:14:51;;;;;;;;;;;;;;;;;;5064761;28;19978;-69
2023/12/23 13:17:18;;;;;;;;;;;;;;;;;;5062469;28;20387;-68
2023/12/23 13:19:45;;;;;;;;;;;;;;;;;;5058651;28;20106;-68
2023/12/23 13:22:13;;;;;;;;;;;;;;;;;;5068163;28;19994;-68
2023/12/23 13:24:40;;;;;;;;;;;;;;;;;;5063346;28;20356;-68
2023/12/23 13:27:07;;;;;;;;;;;;;;;;;;5065837;28;20575;-68
2023/12/23 13:29:34;;;;;;;;;;;;;;;;;;5068952;28;19931;-68
2023/12/23 13:32:01;;;;;;;;;;;;;;;;;;5067319;28;19924;-68
2023/12/23 13:34:28;;;;;;;;;;;;;;;;;;5065155;28;19924;-68
2023/12/23 13:36:55;;;;;;;;;;;;;;;;;;5068091;28;19925;-69
2023/12/23 13:39:23;;;;;;;;;;;;;;;;;;5077060;28;19925;-70
2023/12/23 13:41:50;;;;;;;;;;;;;;;;;;5072480;28;19928;-69
2023/12/23 13:44:17;;;;;;;;;;;;;;;;;;5070468;28;19932;-69
2023/12/23 13:46:47;;;;;;;;;;;;;;;;;;5064299;28;19924;-69
2023/12/23 13:49:14;;;;;;;;;;;;;;;;;;5057705;28;19928;-69
2023/12/23 13:51:41;;;;;;;;;;;;;;;;;;5059638;28;20395;-69
2023/12/23 13:54:08;;;;;;;;;;;;;;;;;;5054346;28;20382;-69
2023/12/23 13:56:35;;;;;;;;;;;;;;;;;;5062853;28;20508;-69
2023/12/23 13:59:02;;;;;;;;;;;;;;;;;;5072424;28;19977;-69
2023/12/23 14:01:29;;;;;;;;;;;;;;;;;;5065755;28;19980;-69
2023/12/23 14:03:56;;;;;;;;;;;;;;;;;;5068066;28;19933;-69
2023/12/23 14:06:23;;;;;;;;;;;;;;;;;;5068562;28;19975;-69
2023/12/23 14:08:50;;;;;;;;;;;;;;;;;;5073095;28;19925;-69
2023/12/23 14:11:18;;;;;;;;;;;;;;;;;;5060688;28;19952;-69
2023/12/23 14:13:45;;;;;;;;;;;;;;;;;;5067018;28;19948;-69
2023/12/23 14:16:13;;;;;;;;;;;;;;;;;;5061744;28;20454;-69
2023/12/23 14:18:40;;;;;;;;;;;;;;;;;;5071352;28;20053;-70
2023/12/23 14:21:08;;;;;;;;;;;;;;;;;;5070347;28;20065;-69
2023/12/23 14:23:35;;;;;;;;;;;;;;;;;;5064140;28;19993;-70
2023/12/23 14:26:02;;;;;;;;;;;;;;;;;;5058748;28;19925;-70
2023/12/23 14:28:29;;;;;;;;;;;;;;;;;;5060859;28;19936;-69
2023/12/23 14:30:56;;;;;;;;;;;;;;;;;;5067307;28;20011;-69
2023/12/23 14:33:23;;;;;;;;;;;;;;;;;;5068948;28;20487;-69
2023/12/23 14:35:50;;;;;;;;;;;;;;;;;;5067310;28;19928;-69
2023/12/23 14:38:17;;;;;;;;;;;;;;;;;;5069151;28;19925;-69
2023/12/23 14:40:44;;;;;;;;;;;;;;;;;;5063522;28;20018;-69
2023/12/23 14:43:12;;;;;;;;;;;;;;;;;;5061842;28;20050;-68
2023/12/23 14:45:39;;;;;;;;;;;;;;;;;;5068875;28;19924;-69
2023/12/23 14:48:06;;;;;;;;;;;;;;;;;;5070523;28;20011;-69
2023/12/23 14:50:33;;;;;;;;;;;;;;;;;;5063068;28;19986;-69
2023/12/23 14:53:00;;;;;;;;;;;;;;;;;;5070784;28;19929;-69
2023/12/23 14:55:27;;;;;;;;;;;;;;;;;;5070997;28;19936;-69
2023/12/23 14:57:54;;;;;;;;;;;;;;;;;;5070001;28;19978;-69
2023/12/23 15:00:21;;;;;;;;;;;;;;;;;;5071925;28;19924;-69
2023/12/23 15:02:48;;;;;;;;;;;;;;;;;;5062648;28;19977;-69
2023/12/23 15:05:15;;;;;;;;;;;;;;;;;;5066876;28;19986;-69
2023/12/23 15:07:42;;;;;;;;;;;;;;;;;;5065868;28;19978;-69
2023/12/23 15:10:09;;;;;;;;;;;;;;;;;;5067402;28;19986;-68
2023/12/23 15:12:36;;;;;;;;;;;;;;;;;;5067365;28;20008;-69
2023/12/23 15:15:03;;;;;;;;;;;;;;;;;;5068924;28;20349;-69
2023/12/23 15:17:30;;;;;;;;;;;;;;;;;;5070062;28;20254;-69
2023/12/23 15:19:58;;;;;;;;;;;;;;;;;;5063695;28;20390;-69
2023/12/23 15:22:25;;;;;;;;;;;;;;;;;;5067998;28;19948;-69
2023/12/23 15:24:54;;;;;;;;;;;;;;;;;;5066914;28;20411;-69
2023/12/23 15:27:21;;;;;;;;;;;;;;;;;;5066305;28;20011;-69
2023/12/23 15:29:48;;;;;;;;;;;;;;;;;;5071102;28;20299;-69
2023/12/23 15:32:15;;;;;;;;;;;;;;;;;;5071094;28;19928;-69
2023/12/23 15:34:42;;;;;;;;;;;;;;;;;;5065202;28;20345;-69
2023/12/23 15:37:11;;;;;;;;;;;;;;;;;;5063790;28;19939;-69
2023/12/23 15:39:38;;;;;;;;;;;;;;;;;;5065864;28;20027;-69
2023/12/23 15:42:05;;;;;;;;;;;;;;;;;;5069901;28;19925;-69
2023/12/23 15:44:32;;;;;;;;;;;;;;;;;;5070681;28;20368;-69
2023/12/23 15:46:59;;;;;;;;;;;;;;;;;;5071299;28;19931;-69
2023/12/23 15:49:27;;;;;;;;;;;;;;;;;;5066442;28;20001;-69
2023/12/23 15:51:54;;;;;;;;;;;;;;;;;;5068927;28;19959;-69
2023/12/23 15:54:21;;;;;;;;;;;;;;;;;;5065307;28;19936;-69
2023/12/23 15:56:48;;;;;;;;;;;;;;;;;;5060284;28;19937;-69
2023/12/23 15:59:16;;;;;;;;;;;;;;;;;;5058967;28;20010;-69
2023/12/23 16:01:44;;;;;;;;;;;;;;;;;;5067291;28;19925;-69
2023/12/23 16:04:11;;;;;;;;;;;;;;;;;;5064223;28;19954;-70
2023/12/23 16:06:38;;;;;;;;;;;;;;;;;;5070946;28;19926;-69
2023/12/23 16:09:05;;;;;;;;;;;;;;;;;;5064770;28;19925;-69
2023/12/23 16:11:32;;;;;;;;;;;;;;;;;;5077942;28;19964;-70
2023/12/23 16:13:59;;;;;;;;;;;;;;;;;;5058711;28;20409;-69
2023/12/23 16:16:26;;;;;;;;;;;;;;;;;;5058466;28;19948;-68
2023/12/23 16:18:53;;;;;;;;;;;;;;;;;;5063802;28;20014;-69
2023/12/23 16:21:20;;;;;;;;;;;;;;;;;;5061635;28;20467;-70
2023/12/23 16:23:47;;;;;;;;;;;;;;;;;;5065714;28;19928;-69
2023/12/23 16:26:15;;;;;;;;;;;;;;;;;;5067892;28;19978;-69
2023/12/23 16:28:44;;;;;;;;;;;;;;;;;;5059103;28;19936;-69
2023/12/23 16:31:11;;;;;;;;;;;;;;;;;;5071800;28;19928;-70
2023/12/23 16:33:38;;;;;;;;;;;;;;;;;;5060218;28;19932;-69
2023/12/23 16:36:05;;;;;;;;;;;;;;;;;;5062710;28;19993;-69
2023/12/23 16:38:33;;;;;;;;;;;;;;;;;;5068483;28;20345;-71
2023/12/23 16:41:00;;;;;;;;;;;;;;;;;;5060691;28;20043;-73
2023/12/23 16:43:27;;;;;;;;;;;;;;;;;;5053281;28;20427;-69
2023/12/23 16:45:54;;;;;;;;;;;;;;;;;;5062166;28;19989;-69